createdAt,value
2023-03-29T00:01:36.702Z,5.16
2023-03-29T00:04:06.529Z,5.21
2023-03-29T00:06:33.979Z,5.22
2023-03-29T00:09:01.967Z,5.25
2023-03-29T00:11:28.573Z,5.28
2023-03-29T00:13:55.417Z,5.26
2023-03-29T00:16:23.507Z,5.33
2023-03-29T00:18:50.011Z,5.34
2023-03-29T00:21:16.518Z,5.28
2023-03-29T00:23:44.373Z,5.37
2023-03-29T00:26:11.760Z,5.36
2023-03-29T00:28:38.238Z,5.37
2023-03-29T00:31:11.074Z,5.37
2023-03-29T00:33:38.302Z,5.41
2023-03-29T00:36:06.126Z,5.40
2023-03-29T00:38:33.413Z,5.39
2023-03-29T00:41:00.079Z,5.36
2023-03-29T00:43:26.999Z,5.36
2023-03-29T00:45:53.743Z,5.39
2023-03-29T00:48:24.354Z,5.33
2023-03-29T00:50:54.358Z,5.39
2023-03-29T00:53:23.702Z,5.41
2023-03-29T00:56:12.347Z,5.40
2023-03-29T00:58:47.877Z,5.39
2023-03-29T01:01:22.103Z,5.40
2023-03-29T01:03:54.348Z,5.35
2023-03-29T01:06:29.036Z,5.47
2023-03-29T01:09:01.993Z,5.46
2023-03-29T01:11:39.152Z,5.45
2023-03-29T01:14:18.267Z,5.44
2023-03-29T01:16:46.014Z,5.47
2023-03-29T01:19:18.221Z,5.44
2023-03-29T01:21:46.157Z,5.54
2023-03-29T01:24:46.250Z,5.48
2023-03-29T01:27:26.391Z,5.49
2023-03-29T01:29:57.885Z,5.54
2023-03-29T01:32:47.927Z,5.56
2023-03-29T01:35:50.920Z,5.55
2023-03-29T01:38:26.431Z,5.59
2023-03-29T01:40:52.974Z,5.68
2023-03-29T01:43:36.579Z,5.60
2023-03-29T01:46:08.776Z,5.63
2023-03-29T01:48:56.694Z,5.69
2023-03-29T01:51:30.691Z,5.68
2023-03-29T01:54:06.126Z,5.73
2023-03-29T01:56:37.839Z,5.71
2023-03-29T01:59:11.257Z,5.76
2023-03-29T02:01:43.732Z,5.78
2023-03-29T02:04:14.212Z,5.82
2023-03-29T02:06:41.928Z,5.86
2023-03-29T02:09:09.102Z,5.84
2023-03-29T02:11:36.276Z,5.86
2023-03-29T02:14:03.484Z,5.82
2023-03-29T02:16:35.850Z,5.82
2023-03-29T02:19:02.868Z,5.82
2023-03-29T02:22:04.215Z,5.81
2023-03-29T02:24:32.877Z,5.82
2023-03-29T02:27:01.186Z,5.78
2023-03-29T02:29:27.769Z,5.82
2023-03-29T02:32:10.009Z,5.72
2023-03-29T02:34:47.721Z,5.73
2023-03-29T02:37:18.947Z,5.71
2023-03-29T02:39:49.784Z,5.56
2023-03-29T02:42:20.301Z,5.64
2023-03-29T02:44:49.608Z,5.58
2023-03-29T02:47:21.516Z,5.67
2023-03-29T02:49:48.240Z,5.63
2023-03-29T02:52:22.251Z,5.71
2023-03-29T02:54:51.341Z,5.70
2023-03-29T02:57:22.055Z,5.70
2023-03-29T02:59:48.769Z,5.71
2023-03-29T03:02:17.591Z,5.79
2023-03-29T03:04:44.705Z,5.76
2023-03-29T03:07:11.425Z,5.73
2023-03-29T03:09:37.895Z,5.73
2023-03-29T03:12:04.373Z,5.79
2023-03-29T03:14:30.851Z,5.87
2023-03-29T03:16:58.097Z,5.96
2023-03-29T03:19:24.918Z,5.87
2023-03-29T03:21:51.757Z,5.89
2023-03-29T03:24:18.460Z,5.86
2023-03-29T03:26:46.354Z,5.86
2023-03-29T03:29:14.410Z,5.86
2023-03-29T03:31:41.361Z,5.86
2023-03-29T03:34:11.086Z,5.89
2023-03-29T03:36:37.687Z,5.86
2023-03-29T03:39:07.132Z,5.87
2023-03-29T03:41:34.658Z,5.90
2023-03-29T03:44:02.456Z,5.95
2023-03-29T03:46:29.800Z,5.90
2023-03-29T03:48:56.677Z,5.92
2023-03-29T03:51:23.336Z,5.92
2023-03-29T03:53:50.141Z,5.94
2023-03-29T03:56:16.785Z,5.93
2023-03-29T03:58:43.806Z,5.93
2023-03-29T04:01:10.266Z,6.00
2023-03-29T04:03:37.933Z,5.97
2023-03-29T04:06:05.382Z,6.06
2023-03-29T04:08:32.061Z,6.03
2023-03-29T04:10:59.731Z,6.03
2023-03-29T04:13:27.528Z,6.05
2023-03-29T04:15:55.754Z,6.05
2023-03-29T04:18:24.023Z,6.03
2023-03-29T04:20:51.546Z,6.05
2023-03-29T04:23:18.373Z,6.08
2023-03-29T04:25:45.007Z,6.06
2023-03-29T04:28:12.780Z,6.09
2023-03-29T04:30:39.790Z,6.10
2023-03-29T04:33:06.437Z,6.09
2023-03-29T04:35:33.602Z,6.12
2023-03-29T04:38:00.281Z,6.10
2023-03-29T04:40:26.806Z,6.07
2023-03-29T04:42:54.422Z,6.12
2023-03-29T04:45:21.401Z,6.11
2023-03-29T04:47:47.989Z,6.14
2023-03-29T04:50:14.582Z,6.13
2023-03-29T04:52:41.364Z,6.15
2023-03-29T04:55:08.689Z,6.18
2023-03-29T04:57:35.331Z,6.13
2023-03-29T05:00:02.213Z,6.17
2023-03-29T05:02:32.262Z,6.15
2023-03-29T05:04:58.947Z,6.19
2023-03-29T05:07:25.414Z,6.24
2023-03-29T05:09:52.028Z,6.22
2023-03-29T05:12:18.572Z,6.22
2023-03-29T05:14:45.006Z,6.22
2023-03-29T05:17:11.416Z,6.22
2023-03-29T05:19:38.411Z,6.26
2023-03-29T05:22:05.052Z,6.30
2023-03-29T05:24:31.817Z,6.30
2023-03-29T05:26:58.452Z,6.32
2023-03-29T05:29:25.031Z,6.35
2023-03-29T05:31:52.533Z,6.34
2023-03-29T05:34:21.516Z,6.35
2023-03-29T05:36:48.992Z,6.35
2023-03-29T05:39:15.512Z,6.37
2023-03-29T05:41:42.054Z,6.42
2023-03-29T05:44:08.644Z,6.38
2023-03-29T05:46:35.265Z,6.43
2023-03-29T05:49:02.563Z,6.44
2023-03-29T05:51:29.056Z,6.51
2023-03-29T05:53:55.828Z,6.47
2023-03-29T05:56:22.837Z,6.52
2023-03-29T05:58:53.734Z,6.53
2023-03-29T06:01:22.556Z,6.52
2023-03-29T06:03:49.576Z,6.53
2023-03-29T06:06:16.685Z,6.57
2023-03-29T06:08:44.309Z,6.60
2023-03-29T06:11:13.264Z,6.59
2023-03-29T06:13:39.808Z,6.63
2023-03-29T06:16:07.158Z,6.66
2023-03-29T06:18:34.112Z,6.72
2023-03-29T06:21:02.848Z,6.74
2023-03-29T06:23:31.644Z,6.71
2023-03-29T06:26:00.664Z,6.67
2023-03-29T06:28:27.476Z,6.68
2023-03-29T06:30:56.442Z,6.70
2023-03-29T06:33:24.225Z,6.72
2023-03-29T06:35:51.116Z,6.75
2023-03-29T06:38:17.620Z,6.82
2023-03-29T06:40:44.787Z,6.87
2023-03-29T06:43:11.965Z,6.89
2023-03-29T06:45:39.368Z,6.93
2023-03-29T06:48:08.036Z,6.89
2023-03-29T06:50:35.425Z,6.92
2023-03-29T06:53:02.280Z,6.93
2023-03-29T06:55:28.804Z,6.97
2023-03-29T06:57:56.602Z,7.01
2023-03-29T07:00:30.734Z,7.03
2023-03-29T07:02:59.651Z,7.07
2023-03-29T07:05:27.369Z,7.08
2023-03-29T07:07:59.854Z,7.17
2023-03-29T07:10:32.937Z,7.24
2023-03-29T07:13:03.464Z,7.25
2023-03-29T07:15:30.014Z,7.30
2023-03-29T07:17:57.621Z,7.37
2023-03-29T07:20:24.978Z,7.40
2023-03-29T07:22:51.927Z,7.47
2023-03-29T07:25:22.589Z,7.54
2023-03-29T07:27:49.715Z,7.57
2023-03-29T07:30:19.366Z,7.62
2023-03-29T07:32:46.803Z,7.67
2023-03-29T07:35:15.156Z,7.74
2023-03-29T07:37:42.847Z,7.74
2023-03-29T07:40:24.467Z,7.71
2023-03-29T07:42:54.291Z,7.79
2023-03-29T07:45:28.566Z,7.79
2023-03-29T07:47:59.817Z,7.68
2023-03-29T07:50:27.597Z,7.72
2023-03-29T07:52:54.773Z,7.73
2023-03-29T07:55:21.965Z,7.75
2023-03-29T07:57:49.758Z,7.94
2023-03-29T08:00:17.391Z,8.02
2023-03-29T08:02:45.310Z,8.02
2023-03-29T08:05:23.142Z,7.99
2023-03-29T08:07:56.268Z,7.93
2023-03-29T08:10:23.080Z,8.00
2023-03-29T08:12:50.413Z,8.06
2023-03-29T08:15:17.109Z,8.15
2023-03-29T08:17:43.915Z,8.17
2023-03-29T08:20:13.812Z,8.27
2023-03-29T08:22:40.387Z,8.26
2023-03-29T08:25:07.569Z,8.33
2023-03-29T08:27:35.240Z,8.45
2023-03-29T08:30:01.638Z,8.47
2023-03-29T08:32:28.202Z,8.57
2023-03-29T08:34:55.123Z,8.74
2023-03-29T08:37:21.899Z,8.85
2023-03-29T08:39:49.640Z,8.88
2023-03-29T08:42:26.596Z,8.95
2023-03-29T08:45:12.686Z,9.09
2023-03-29T08:47:59.717Z,9.13
2023-03-29T08:50:44.545Z,9.16
2023-03-29T08:53:17.690Z,9.14
2023-03-29T08:55:46.526Z,9.13
2023-03-29T08:58:17.456Z,9.17
2023-03-29T09:00:54.048Z,9.15
2023-03-29T09:03:26.599Z,9.11
2023-03-29T09:05:59.904Z,9.04
2023-03-29T09:08:26.649Z,9.14
2023-03-29T09:11:02.935Z,9.50
2023-03-29T09:13:54.880Z,9.54
2023-03-29T09:17:15.765Z,9.51
2023-03-29T09:20:08.156Z,9.43
2023-03-29T09:23:19.692Z,9.31
2023-03-29T09:26:15.811Z,9.32
2023-03-29T09:29:05.149Z,9.44
2023-03-29T09:31:37.259Z,9.65
2023-03-29T09:34:14.448Z,9.84
2023-03-29T09:36:47.554Z,9.82
2023-03-29T09:39:16.628Z,9.79
2023-03-29T09:42:05.451Z,9.89
2023-03-29T09:44:44.456Z,9.91
2023-03-29T09:47:35.076Z,9.65
2023-03-29T09:50:23.144Z,9.78
2023-03-29T09:52:54.389Z,9.70
2023-03-29T09:55:25.273Z,9.66
2023-03-29T09:57:52.170Z,9.73
2023-03-29T10:00:19.667Z,9.92
2023-03-29T10:02:54.636Z,9.99
2023-03-29T10:05:24.342Z,10.19
2023-03-29T10:07:53.718Z,10.58
2023-03-29T10:10:28.543Z,10.38
2023-03-29T10:13:00.957Z,10.41
2023-03-29T10:15:30.596Z,10.46
2023-03-29T10:18:03.645Z,10.54
2023-03-29T10:20:30.718Z,10.58
2023-03-29T10:22:59.100Z,10.50
2023-03-29T10:25:32.795Z,10.59
2023-03-29T10:28:16.330Z,10.58
2023-03-29T10:30:47.697Z,10.45
2023-03-29T10:33:21.150Z,10.45
2023-03-29T10:35:48.743Z,10.45
2023-03-29T10:38:22.306Z,10.44
2023-03-29T10:40:51.769Z,10.38
2023-03-29T10:43:35.671Z,10.42
2023-03-29T10:46:13.143Z,10.67
2023-03-29T10:48:46.144Z,10.83
2023-03-29T10:51:15.091Z,10.77
2023-03-29T10:53:42.375Z,10.74
2023-03-29T10:56:46.690Z,10.73
2023-03-29T10:59:32.723Z,10.79
2023-03-29T11:02:29.353Z,11.06
2023-03-29T11:05:20.298Z,10.93
2023-03-29T11:08:05.761Z,11.30
2023-03-29T11:11:34.178Z,12.11
2023-03-29T11:14:28.049Z,12.08
2023-03-29T11:17:10.234Z,12.14
2023-03-29T11:19:56.688Z,11.54
2023-03-29T11:22:37.962Z,11.34
2023-03-29T11:25:32.070Z,11.11
2023-03-29T11:28:09.608Z,11.05
2023-03-29T11:31:03.086Z,11.29
2023-03-29T11:33:36.138Z,11.32
2023-03-29T11:36:06.041Z,11.13
2023-03-29T11:38:39.669Z,11.19
2023-03-29T11:41:22.741Z,11.10
2023-03-29T11:43:55.116Z,11.04
2023-03-29T11:46:41.818Z,10.98
2023-03-29T11:49:11.901Z,10.93
2023-03-29T11:51:42.671Z,11.03
2023-03-29T11:54:20.755Z,10.95
2023-03-29T11:56:54.370Z,10.96
2023-03-29T11:59:56.741Z,11.11
2023-03-29T12:02:41.068Z,11.21
2023-03-29T12:05:42.911Z,11.34
2023-03-29T12:08:15.299Z,11.52
2023-03-29T12:11:06.768Z,11.49
2023-03-29T12:13:42.895Z,11.58
2023-03-29T12:16:23.009Z,11.49
2023-03-29T12:18:54.230Z,11.30
2023-03-29T12:21:26.792Z,11.10
2023-03-29T12:23:53.556Z,11.08
2023-03-29T12:26:40.450Z,11.08
2023-03-29T12:29:07.392Z,10.97
2023-03-29T12:32:12.873Z,10.96
2023-03-29T12:35:03.307Z,10.88
2023-03-29T12:37:39.976Z,10.85
2023-03-29T12:40:16.620Z,10.87
2023-03-29T12:42:48.167Z,10.93
2023-03-29T12:45:27.387Z,11.02
2023-03-29T12:47:55.785Z,11.03
2023-03-29T12:50:28.523Z,11.14
2023-03-29T12:53:23.729Z,11.17
2023-03-29T12:55:56.692Z,11.37
2023-03-29T12:58:29.806Z,11.46
2023-03-29T13:01:27.515Z,11.88
2023-03-29T13:03:59.968Z,12.03
2023-03-29T13:06:54.216Z,12.14
2023-03-29T13:09:30.026Z,12.52
2023-03-29T13:12:11.679Z,12.31
2023-03-29T13:14:43.710Z,12.05
2023-03-29T13:17:22.519Z,11.96
2023-03-29T13:20:09.331Z,11.96
2023-03-29T13:22:53.363Z,11.92
2023-03-29T13:25:43.754Z,11.70
2023-03-29T13:28:27.834Z,11.77
2023-03-29T13:31:22.864Z,11.86
2023-03-29T13:34:03.501Z,11.89
2023-03-29T13:36:39.233Z,11.99
2023-03-29T13:39:07.246Z,12.14
2023-03-29T13:41:47.635Z,12.45
2023-03-29T13:44:25.553Z,12.56
2023-03-29T13:47:04.943Z,12.37
2023-03-29T13:49:34.038Z,12.26
2023-03-29T13:52:03.207Z,12.25
2023-03-29T13:54:42.409Z,12.29
2023-03-29T13:57:15.784Z,12.44
2023-03-29T14:00:02.558Z,12.52
2023-03-29T14:02:40.831Z,12.71
2023-03-29T14:05:12.810Z,12.77
2023-03-29T14:07:44.517Z,12.85
2023-03-29T14:10:17.443Z,12.86
2023-03-29T14:12:44.264Z,12.84
2023-03-29T14:15:23.833Z,12.81
2023-03-29T14:17:54.950Z,12.84
2023-03-29T14:20:21.606Z,12.81
2023-03-29T14:22:48.857Z,12.81
2023-03-29T14:25:18.429Z,12.79
2023-03-29T14:27:45.011Z,12.90
2023-03-29T14:30:37.820Z,12.76
2023-03-29T14:33:05.303Z,12.87
2023-03-29T14:35:36.337Z,12.93
2023-03-29T14:38:03.777Z,12.99
2023-03-29T14:40:30.844Z,13.10
2023-03-29T14:43:00.036Z,13.24
2023-03-29T14:45:27.069Z,13.36
2023-03-29T14:47:53.745Z,13.35
2023-03-29T14:50:31.098Z,13.25
2023-03-29T14:52:59.881Z,13.26
2023-03-29T14:55:27.236Z,13.27
2023-03-29T14:57:55.385Z,13.33
2023-03-29T15:00:43.002Z,13.40
2023-03-29T15:03:16.373Z,13.37
2023-03-29T15:05:51.923Z,13.35
2023-03-29T15:08:34.561Z,13.31
2023-03-29T15:11:01.871Z,13.33
2023-03-29T15:13:29.874Z,13.41
2023-03-29T15:16:03.844Z,13.41
2023-03-29T15:18:39.830Z,13.50
2023-03-29T15:21:12.867Z,13.46
2023-03-29T15:23:55.073Z,13.55
2023-03-29T15:26:31.124Z,13.59
2023-03-29T15:29:23.209Z,13.59
2023-03-29T15:31:58.993Z,13.48
2023-03-29T15:34:33.286Z,13.42
2023-03-29T15:37:01.888Z,13.42
2023-03-29T15:39:29.480Z,13.37
2023-03-29T15:41:57.235Z,13.35
2023-03-29T15:44:29.047Z,13.29
2023-03-29T15:46:57.797Z,13.30
2023-03-29T15:49:25.045Z,13.28
2023-03-29T15:51:54.002Z,13.26
2023-03-29T15:54:21.918Z,13.20
2023-03-29T15:56:55.320Z,13.19
2023-03-29T15:59:22.465Z,13.15
2023-03-29T16:01:49.220Z,13.17
2023-03-29T16:04:18.399Z,13.17
2023-03-29T16:06:46.952Z,13.18
2023-03-29T16:09:13.398Z,13.14
2023-03-29T16:11:41.633Z,13.06
2023-03-29T16:14:23.131Z,13.09
2023-03-29T16:16:53.031Z,13.03
2023-03-29T16:19:20.485Z,12.98
2023-03-29T16:21:48.110Z,13.00
2023-03-29T16:24:21.883Z,12.91
2023-03-29T16:26:48.696Z,12.97
2023-03-29T16:29:17.292Z,12.94
2023-03-29T16:31:48.715Z,12.99
2023-03-29T16:34:19.206Z,12.89
2023-03-29T16:36:47.404Z,12.85
2023-03-29T16:39:14.906Z,12.91
2023-03-29T16:41:42.516Z,12.96
2023-03-29T16:44:15.305Z,12.92
2023-03-29T16:46:42.079Z,12.88
2023-03-29T16:49:13.988Z,12.86
2023-03-29T16:51:40.529Z,12.91
2023-03-29T16:54:07.743Z,12.84
2023-03-29T16:56:36.767Z,12.80
2023-03-29T16:59:03.623Z,12.75
2023-03-29T17:01:30.257Z,12.76
2023-03-29T17:03:57.208Z,12.78
2023-03-29T17:06:23.924Z,12.68
2023-03-29T17:08:50.636Z,12.62
2023-03-29T17:11:17.406Z,12.64
2023-03-29T17:13:44.603Z,12.60
2023-03-29T17:16:11.212Z,12.62
2023-03-29T17:18:37.897Z,12.60
2023-03-29T17:21:08.110Z,12.54
2023-03-29T17:23:34.680Z,12.66
2023-03-29T17:26:02.145Z,12.60
2023-03-29T17:28:29.305Z,12.56
2023-03-29T17:30:55.840Z,12.57
2023-03-29T17:33:25.832Z,12.63
2023-03-29T17:35:53.064Z,12.59
2023-03-29T17:38:19.668Z,12.61
2023-03-29T17:40:53.026Z,12.59
2023-03-29T17:43:19.475Z,12.59
2023-03-29T17:45:46.346Z,12.54
2023-03-29T17:48:13.230Z,12.56
2023-03-29T17:50:39.773Z,12.51
2023-03-29T17:53:06.591Z,12.51
2023-03-29T17:55:33.018Z,12.44
2023-03-29T17:57:59.465Z,12.43
2023-03-29T18:00:26.036Z,12.46
2023-03-29T18:02:52.532Z,12.50
2023-03-29T18:05:20.746Z,12.44
2023-03-29T18:07:47.230Z,12.43
2023-03-29T18:10:13.728Z,12.41
2023-03-29T18:12:40.215Z,12.39
2023-03-29T18:15:07.374Z,12.42
2023-03-29T18:17:35.728Z,12.34
2023-03-29T18:20:02.373Z,12.36
2023-03-29T18:22:29.110Z,12.30
2023-03-29T18:24:56.365Z,12.27
2023-03-29T18:27:22.869Z,12.27
2023-03-29T18:29:49.320Z,12.31
2023-03-29T18:32:17.071Z,12.29
2023-03-29T18:34:43.546Z,12.24
2023-03-29T18:37:14.559Z,12.23
2023-03-29T18:39:42.020Z,12.26
2023-03-29T18:42:11.623Z,12.31
2023-03-29T18:44:40.230Z,12.25
2023-03-29T18:47:07.518Z,12.23
2023-03-29T18:49:34.354Z,12.24
2023-03-29T18:52:02.073Z,12.24
2023-03-29T18:54:29.094Z,12.23
2023-03-29T18:56:57.827Z,12.23
2023-03-29T18:59:25.545Z,12.16
2023-03-29T19:01:52.291Z,12.21
2023-03-29T19:04:20.039Z,12.17
2023-03-29T19:06:47.443Z,12.10
2023-03-29T19:09:14.012Z,12.07
2023-03-29T19:11:40.453Z,11.99
2023-03-29T19:14:09.074Z,11.98
2023-03-29T19:16:36.228Z,12.03
2023-03-29T19:19:02.760Z,11.95
2023-03-29T19:21:31.611Z,11.99
2023-03-29T19:24:00.720Z,11.96
2023-03-29T19:26:29.497Z,11.99
2023-03-29T19:28:56.255Z,11.95
2023-03-29T19:31:23.000Z,11.96
2023-03-29T19:33:49.550Z,11.94
2023-03-29T19:36:16.187Z,11.91
2023-03-29T19:38:44.138Z,11.91
2023-03-29T19:41:11.516Z,11.92
2023-03-29T19:43:38.097Z,11.99
2023-03-29T19:46:08.002Z,11.99
2023-03-29T19:48:34.552Z,12.00
2023-03-29T19:51:03.028Z,11.98
2023-03-29T19:53:30.648Z,12.05
2023-03-29T19:55:58.388Z,11.98
2023-03-29T19:58:26.611Z,12.04
2023-03-29T20:00:57.951Z,12.13
2023-03-29T20:03:28.487Z,12.09
2023-03-29T20:05:56.480Z,12.09
2023-03-29T20:08:24.846Z,12.08
2023-03-29T20:11:03.810Z,12.02
2023-03-29T20:13:38.162Z,12.06
2023-03-29T20:16:08.123Z,12.06
2023-03-29T20:18:34.794Z,12.03
2023-03-29T20:21:02.028Z,12.12
2023-03-29T20:23:28.666Z,12.09
2023-03-29T20:25:55.367Z,12.09
2023-03-29T20:28:21.854Z,12.10
2023-03-29T20:30:51.182Z,12.08
2023-03-29T20:33:19.168Z,12.04
2023-03-29T20:35:46.263Z,12.04
2023-03-29T20:38:13.666Z,12.08
2023-03-29T20:40:43.045Z,12.13
2023-03-29T20:43:18.854Z,12.10
2023-03-29T20:45:53.447Z,12.12
2023-03-29T20:48:23.314Z,12.06
2023-03-29T20:50:50.638Z,12.09
2023-03-29T20:53:18.240Z,12.14
2023-03-29T20:55:48.314Z,12.15
2023-03-29T20:58:15.748Z,12.11
2023-03-29T21:00:42.871Z,12.08
2023-03-29T21:03:09.568Z,12.10
2023-03-29T21:05:36.247Z,12.09
2023-03-29T21:08:04.346Z,12.13
2023-03-29T21:10:31.360Z,12.11
2023-03-29T21:13:02.257Z,12.12
2023-03-29T21:15:30.543Z,12.06
2023-03-29T21:17:57.507Z,12.07
2023-03-29T21:20:24.198Z,12.07
2023-03-29T21:22:51.008Z,12.09
2023-03-29T21:25:17.628Z,12.01
2023-03-29T21:27:44.176Z,12.07
2023-03-29T21:30:11.193Z,12.08
2023-03-29T21:32:39.661Z,12.07
2023-03-29T21:35:06.891Z,12.08
2023-03-29T21:37:33.310Z,12.06
2023-03-29T21:40:00.211Z,12.03
2023-03-29T21:42:26.672Z,12.10
2023-03-29T21:44:53.210Z,12.10
2023-03-29T21:47:21.733Z,12.06
2023-03-29T21:49:48.271Z,12.03
2023-03-29T21:52:14.778Z,12.02
2023-03-29T21:54:42.105Z,11.95
2023-03-29T21:57:08.669Z,11.99
2023-03-29T21:59:35.228Z,12.03
2023-03-29T22:02:02.304Z,12.08
2023-03-29T22:04:36.510Z,12.05
2023-03-29T22:07:05.169Z,12.08
2023-03-29T22:09:35.048Z,12.09
2023-03-29T22:12:02.534Z,12.03
2023-03-29T22:14:31.140Z,12.12
2023-03-29T22:16:57.625Z,12.10
2023-03-29T22:19:24.180Z,12.16
2023-03-29T22:21:51.532Z,12.10
2023-03-29T22:24:18.132Z,12.12
2023-03-29T22:26:48.129Z,12.11
2023-03-29T22:29:14.624Z,11.97
2023-03-29T22:31:41.163Z,11.88
2023-03-29T22:34:07.744Z,11.86
2023-03-29T22:36:36.234Z,11.88
2023-03-29T22:39:02.728Z,11.99
2023-03-29T22:41:29.472Z,11.82
2023-03-29T22:43:58.170Z,11.82
2023-03-29T22:46:26.395Z,11.88
2023-03-29T22:48:53.163Z,11.77
2023-03-29T22:51:20.065Z,11.73
2023-03-29T22:53:49.474Z,11.74
2023-03-29T22:56:16.557Z,11.76
2023-03-29T22:58:43.576Z,11.69
2023-03-29T23:01:10.783Z,11.70
2023-03-29T23:03:39.181Z,11.70
2023-03-29T23:06:06.741Z,11.69
2023-03-29T23:08:34.266Z,11.66
2023-03-29T23:11:02.528Z,11.68
2023-03-29T23:13:29.579Z,11.68
2023-03-29T23:15:59.847Z,11.71
2023-03-29T23:18:28.435Z,11.72
2023-03-29T23:20:56.733Z,11.69
2023-03-29T23:23:24.864Z,11.60
2023-03-29T23:25:53.087Z,11.62
2023-03-29T23:28:23.584Z,11.66
2023-03-29T23:30:58.223Z,11.63
2023-03-29T23:33:25.809Z,11.62
2023-03-29T23:35:53.042Z,11.71
2023-03-29T23:38:19.857Z,11.63
2023-03-29T23:40:54.189Z,11.64
2023-03-29T23:43:21.141Z,11.61
2023-03-29T23:45:47.651Z,11.60
2023-03-29T23:48:14.198Z,11.69
2023-03-29T23:50:40.629Z,11.71
2023-03-29T23:53:07.059Z,11.77
2023-03-29T23:55:34.203Z,11.79
2023-03-29T23:58:00.851Z,11.83
